Aviation Digital Data Service (ADDS)

Output produced by METARs form (1034 UTC 19 January 2019)
found at http://www.aviationweather.gov/metar/data/
 
ZBHH 191000Z 35007MPS CAVOK M05/M18 Q1024 NOSIG
TAF ZBHH 190905Z 1912/2012 36004MPS CAVOK TXM02/07Z TNM15/23Z
       
ZGGG 191000Z VRB01MPS 7000 NSC 22/12 Q1017 NOSIG
TAF ZGGG 190904Z 1912/2012 06003MPS 6000 BKN040 TX22/2007Z TN16/1922Z 
     BECMG 1921/1922 3500 BR 
     BECMG 2004/2005 36005MPS 8000
       
ZGSZ 191000Z 17004MPS 4500 BR BKN053 20/16 Q1017 NOSIG
TAF ZGSZ 190912Z 1912/2012 09004MPS 5000 BR BKN040 TX22/2006Z TN17/1922Z 
     BECMG 2003/2005 30004MPS
       
ZBTJ 191000Z 32002MPS CAVOK 02/M17 Q1027 NOSIG
TAF ZBTJ 190851Z 1912/2012 34006MPS 5000 HZ NSC TX03/2006Z TNM04/22Z
       
ZBAA 191000Z VRB01MPS CAVOK 00/M19 Q1027 NOSIG
TAF ZBAA 190920Z 1912/2012 33004MPS CAVOK TX05/2007Z TNM06/22Z
       
ZSFZ 191000Z 18002MPS 110V220 CAVOK 15/10 Q1019 NOSIG
TAF ZSFZ 190906Z 1912/2012 02004MPS 5000 BR SCT020 TX19/2006Z TN11/1921Z
       
ZYCC 191000Z 24004MPS CAVOK M11/M20 Q1021 NOSIG
TAF ZYCC 190706Z 1912/2012 26004MPS 6000 NSC TXM07/06Z TNM17/21Z
       
ZWWW 191000Z 02002MPS 1600 BR SCT011 M07/M10 Q1035 BECMG TL1030 1400 BR BKN011
TAF ZWWW 190912Z 1912/2012 14003MPS 2000 -SN BR BKN011 TXM06/09Z TNM13/00Z 
     BECMG 2000/2001 1100 -SN BR BKN007 
     TEMPO 2000/2004 0700 FZFG BKN004 
     BECMG 2004/2005 03004MPS 2000 BR
       
ZSAM 191000Z 11002MPS 070V150 9999 BKN060 17/12 Q1019 NOSIG
TAF ZSAM 190905Z 1912/2012 06004MPS 8000 BKN040 TX21/2006Z TN13/1921Z
       
ZSSS 191000Z 33003MPS 290V010 5000 BR NSC 09/05 Q1021 NOSIG
TAF ZSSS 190911Z 1912/2012 33005MPS 3500 HZ BKN026 TX09/2006Z TN05/1920Z
       
ZGHA 191000Z 36006MPS 2500 -RA BR BKN008 OVC050 07/06 Q1022 BECMG TL1100 3100
TAF ZGHA 190821Z 1912/2012 35004MPS 1700 -RA BR SCT004 BKN006 OVC040 TX08/2007Z
TN04/1922Z 
     BECMG 1917/1918 BKN004 OVC040 
     BECMG 2002/2003 BKN007 OVC040
       
ZUCK 191000Z 03003MPS 3200 BR SCT020 09/06 Q1020 NOSIG
TAF ZUCK 190911Z 1912/2012 05003MPS 3200 BR SCT020 OVC050 TX09/2007Z TN07/1922Z 
     BECMG 1919/1920 2400 -RA BR FEW002 SCT008 OVC040 
     TEMPO 1922/2002 1200 -RA BR
       
ZWSH 191000Z 10004MPS 6000 SCT040 M00/M08 Q1027 NOSIG
TAF ZWSH 190903Z 1912/2012 06004MPS 6000 SCT040 TXM02/12Z TNM11/00Z 
     BECMG 1915/1916 33004MPS
       
ZGKL 191000Z 04002MPS 0700 R01/1700 -RA FG FEW003 SCT011 OVC030 12/11 Q1018 BECMG FM1100 0800
TAF ZGKL 190912Z 1912/2012 05002MPS 0800 -RA FG FEW003 SCT006 OVC026 TX13/2007Z
TN06/1922Z 
     BECMG 1914/1915 1500 -RA BR
       
ZSNB 191000Z 01003MPS 6000 NSC 11/05 Q1021 NOSIG
TAF ZSNB 190819Z 1912/2012 34004MPS 5000 BR SCT030 TX11/1912Z TN07/1921Z
       
ZSQD 191000Z 36006MPS 4500 HZ NSC 06/M03 Q1022 NOSIG
TAF ZSQD 190908Z 1912/2012 35004MPS 3500 BR NSC TX06/2006Z TNM05/21Z
       
ZSNJ 191000Z 29001MPS 4000 BR NSC 07/04 Q1023 NOSIG
TAF ZSNJ 190902Z 1912/2012 33004MPS 3000 HZ NSC TX06/2006Z TN01/2011Z
       
ZSOF 191000Z 32004MPS 1600 BR SCT011 05/03 Q1023 BECMG AT1100 1400 BR
TAF ZSOF 190905Z 1912/2012 34003MPS 2000 BR SCT016 TX05/2007Z TN01/1922Z 
     BECMG 1918/1919 3000 HZ
       
ZJHK 191000Z 07007MPS 9999 SCT015 BKN026 22/19 Q1016 NOSIG
TAF ZJHK 190906Z 1912/2012 07004MPS 5000 BR SCT020 TX25/2006Z TN19/1921Z
       
ZJSY 191000Z 09006MPS 9999 FEW023 SCT066 26/19 Q1014 NOSIG
TAF ZJSY 190900Z 1912/2012 09004MPS 9999 FEW020 SCT050 TX30/2006Z TN19/1921Z
       
ZSPD 191000Z 31003MPS 6000 OVC040 10/05 Q1021 NOSIG
TAF ZSPD 190919Z 1912/2012 32004MPS 3500 BR BKN015 TX09/2006Z TN04/1921Z
       
ZUUU 191000Z VRB01MPS CAVOK 13/M02 Q1019 NOSIG
TAF ZUUU 190805Z 1912/2012 02003MPS 3000 BR SCT050 TX12/2006Z TN03/1923Z
       
ZYHB 191000Z 23003MPS CAVOK M13/M19 Q1019 NOSIG
TAF ZYHB 190901Z 1912/2012 21003MPS 6000 NSC TXM12/06Z TNM23/21Z
       
ZYTX 191000Z 20001MPS CAVOK M06/M17 Q1024 NOSIG
TAF ZYTX 190712Z 1912/2012 30003MPS CAVOK TXM02/06Z TNM14/21Z
       
ZHHH 191000Z VRB01MPS 2700 BR NSC 06/04 Q1024 BECMG TL1040 3000 BR
TAF ZHHH 190818Z 1912/2012 02003MPS 2500 BR SCT020 TX07/2007Z TN01/1922Z 
     BECMG 2002/2003 3000 BR 
     TEMPO 1914/1918 1400 -RA BR
       
ZPPP 191000Z 24009MPS CAVOK 14/M03 Q1018 NOSIG
TAF ZPPP 190705Z 1912/2012 23006MPS 9999 FEW026 TX18/2008Z TN04/1923Z
       
ZBYN 191000Z 33002MPS CAVOK 01/M15 Q1022 NOSIG
TAF ZBYN 190908Z 1912/2012 06004MPS 6000 NSC TX02/2007Z TNM07/22Z
       
ZGNN 191000Z 11002MPS 090V160 3100 BR FEW007 SCT010 OVC033 19/17 Q1016 NOSIG
TAF ZGNN 190905Z 1912/2012 13003MPS 3000 BR SCT010 OVC030 TX19/2006Z TN13/1922Z 
     BECMG 2008/2009 02005MPS
       
ZLXY 191000Z 22002MPS CAVOK 04/M13 Q1024 NOSIG
TAF ZLXY 190904Z 1912/2012 24003MPS 3000 HZ NSC TX09/2007Z TNM07/22Z
       
ZSHC 191000Z 03003MPS 5000 BR SCT040 09/06 Q1022 NOSIG
TAF ZSHC 190909Z 1912/2012 36003MPS 3000 BR SCT030 TX11/2006Z TN05/1921Z 
     TEMPO 1914/1920 2500 -RA BR
       
ZHCC 191000Z 02003MPS 2500 HZ NSC 02/M03 Q1026 BECMG TL1040 3000
TAF ZHCC 190912Z 1912/2012 03004MPS 3000 HZ NSC TX06/2007Z TNM03/22Z
       
ZBSJ 191000Z 11001MPS CAVOK 01/M19 Q1027 NOSIG
TAF ZBSJ 190713Z 1912/2012 06004MPS 4000 HZ NSC TX05/2007Z TNM06/21Z
       
ZLLL 191000Z 15001MPS CAVOK M03/M13 Q1022 NOSIG
TAF ZLLL 190902Z 1912/2012 06003MPS 6000 BKN040 TXM05/08Z TNM15/21Z 
     TEMPO 2000/2006 4000 -SN
       
ZYTL 191000Z 33003MPS 270V010 CAVOK M02/M12 Q1025 NOSIG
TAF ZYTL 190910Z 1912/2012 35004G10MPS 6000 NSC TX02/2006Z TNM07/21Z